<?xml version="1.0" encoding="UTF-8" standalone="no" ?>
<gpx xmlns="http://www.topografix.com/GPX/1/1" xmlns:xsi="http://www.w3.org/2001/XMLSchema-instance" xsi:schemaLocation="http://www.topografix.com/GPX/1/1 http://www.topografix.com/GPX/1/1/gpx.xsd" version="1.1" creator="VisuGPX - https://www.visugpx.com">
  <metadata>
    <name>160818 - Beny-Amblies</name>
    <desc><![CDATA[Circuit en handbike du 18 août 2016]]></desc>
  </metadata>
  <trk>
    <name><![CDATA[160818 - Beny-Amblies]]></name>
    <trkseg>
      <trkpt lat="49.32667" lon="-0.38087">
        <ele>9.75</ele>
        <time>2016-08-18T12:52:55Z</time>
      </trkpt>
      <trkpt lat="49.32674" lon="-0.38087">
        <ele>10.71</ele>
        <time>2016-08-18T12:52:59Z</time>
      </trkpt>
      <trkpt lat="49.32687" lon="-0.38076">
        <ele>10.23</ele>
        <time>2016-08-18T12:53:03Z</time>
      </trkpt>
      <trkpt lat="49.32688" lon="-0.38048">
        <ele>10.23</ele>
        <time>2016-08-18T12:53:09Z</time>
      </trkpt>
      <trkpt lat="49.32669" lon="-0.37943">
        <ele>10.23</ele>
        <time>2016-08-18T12:53:29Z</time>
      </trkpt>
      <trkpt lat="49.3265" lon="-0.37825">
        <ele>10.23</ele>
        <time>2016-08-18T12:53:47Z</time>
      </trkpt>
      <trkpt lat="49.3263" lon="-0.37721">
        <ele>10.23</ele>
        <time>2016-08-18T12:54:02Z</time>
      </trkpt>
      <trkpt lat="49.3262" lon="-0.37651">
        <ele>10.71</ele>
        <time>2016-08-18T12:54:13Z</time>
      </trkpt>
      <trkpt lat="49.32603" lon="-0.37634">
        <ele>10.23</ele>
        <time>2016-08-18T12:54:19Z</time>
      </trkpt>
      <trkpt lat="49.32574" lon="-0.37634">
        <ele>9.75</ele>
        <time>2016-08-18T12:54:25Z</time>
      </trkpt>
      <trkpt lat="49.3256" lon="-0.37642">
        <ele>9.75</ele>
        <time>2016-08-18T12:54:28Z</time>
      </trkpt>
      <trkpt lat="49.3254" lon="-0.37663">
        <ele>10.23</ele>
        <time>2016-08-18T12:54:38Z</time>
      </trkpt>
      <trkpt lat="49.32531" lon="-0.37661">
        <ele>10.71</ele>
        <time>2016-08-18T12:54:43Z</time>
      </trkpt>
      <trkpt lat="49.32512" lon="-0.37591">
        <ele>9.75</ele>
        <time>2016-08-18T12:54:55Z</time>
      </trkpt>
      <trkpt lat="49.32503" lon="-0.37586">
        <ele>9.75</ele>
        <time>2016-08-18T12:54:59Z</time>
      </trkpt>
      <trkpt lat="49.32488" lon="-0.3759">
        <ele>10.23</ele>
        <time>2016-08-18T12:55:03Z</time>
      </trkpt>
      <trkpt lat="49.32451" lon="-0.37608">
        <ele>9.75</ele>
        <time>2016-08-18T12:55:14Z</time>
      </trkpt>
      <trkpt lat="49.32429" lon="-0.37622">
        <ele>11.19</ele>
        <time>2016-08-18T12:56:01Z</time>
      </trkpt>
      <trkpt lat="49.32397" lon="-0.37636">
        <ele>11.19</ele>
        <time>2016-08-18T12:56:16Z</time>
      </trkpt>
      <trkpt lat="49.32372" lon="-0.37646">
        <ele>11.67</ele>
        <time>2016-08-18T12:56:30Z</time>
      </trkpt>
      <trkpt lat="49.323" lon="-0.37679">
        <ele>10.23</ele>
        <time>2016-08-18T12:56:49Z</time>
      </trkpt>
      <trkpt lat="49.32289" lon="-0.3768">
        <ele>10.23</ele>
        <time>2016-08-18T12:56:53Z</time>
      </trkpt>
      <trkpt lat="49.32288" lon="-0.37659">
        <ele>10.23</ele>
        <time>2016-08-18T12:56:58Z</time>
      </trkpt>
      <trkpt lat="49.32293" lon="-0.37631">
        <ele>9.75</ele>
        <time>2016-08-18T12:57:02Z</time>
      </trkpt>
      <trkpt lat="49.32283" lon="-0.3762">
        <ele>10.23</ele>
        <time>2016-08-18T12:57:07Z</time>
      </trkpt>
      <trkpt lat="49.32227" lon="-0.37656">
        <ele>10.71</ele>
        <time>2016-08-18T12:57:20Z</time>
      </trkpt>
      <trkpt lat="49.32215" lon="-0.3767">
        <ele>9.75</ele>
        <time>2016-08-18T12:57:25Z</time>
      </trkpt>
      <trkpt lat="49.32203" lon="-0.37664">
        <ele>9.75</ele>
        <time>2016-08-18T12:57:31Z</time>
      </trkpt>
      <trkpt lat="49.32179" lon="-0.37629">
        <ele>9.27</ele>
        <time>2016-08-18T12:57:38Z</time>
      </trkpt>
      <trkpt lat="49.32094" lon="-0.37516">
        <ele>7.83</ele>
        <time>2016-08-18T12:57:58Z</time>
      </trkpt>
      <trkpt lat="49.32074" lon="-0.37486">
        <ele>7.83</ele>
        <time>2016-08-18T12:58:04Z</time>
      </trkpt>
      <trkpt lat="49.32033" lon="-0.37421">
        <ele>8.79</ele>
        <time>2016-08-18T12:58:16Z</time>
      </trkpt>
      <trkpt lat="49.32012" lon="-0.37387">
        <ele>9.27</ele>
        <time>2016-08-18T12:58:22Z</time>
      </trkpt>
      <trkpt lat="49.31982" lon="-0.37366">
        <ele>9.75</ele>
        <time>2016-08-18T12:58:28Z</time>
      </trkpt>
      <trkpt lat="49.31948" lon="-0.37335">
        <ele>10.23</ele>
        <time>2016-08-18T12:58:35Z</time>
      </trkpt>
      <trkpt lat="49.31933" lon="-0.37321">
        <ele>10.23</ele>
        <time>2016-08-18T12:58:38Z</time>
      </trkpt>
      <trkpt lat="49.31899" lon="-0.37308">
        <ele>11.67</ele>
        <time>2016-08-18T12:58:44Z</time>
      </trkpt>
      <trkpt lat="49.31838" lon="-0.37334">
        <ele>11.67</ele>
        <time>2016-08-18T12:58:54Z</time>
      </trkpt>
      <trkpt lat="49.31741" lon="-0.37356">
        <ele>13.12</ele>
        <time>2016-08-18T12:59:12Z</time>
      </trkpt>
      <trkpt lat="49.31625" lon="-0.37336">
        <ele>13.6</ele>
        <time>2016-08-18T12:59:32Z</time>
      </trkpt>
      <trkpt lat="49.31452" lon="-0.37297">
        <ele>16.48</ele>
        <time>2016-08-18T13:00:00Z</time>
      </trkpt>
      <trkpt lat="49.31272" lon="-0.37247">
        <ele>18.4</ele>
        <time>2016-08-18T13:00:29Z</time>
      </trkpt>
      <trkpt lat="49.31223" lon="-0.37243">
        <ele>19.84</ele>
        <time>2016-08-18T13:00:37Z</time>
      </trkpt>
      <trkpt lat="49.3109" lon="-0.37286">
        <ele>23.69</ele>
        <time>2016-08-18T13:01:00Z</time>
      </trkpt>
      <trkpt lat="49.30957" lon="-0.37333">
        <ele>25.61</ele>
        <time>2016-08-18T13:01:24Z</time>
      </trkpt>
      <trkpt lat="49.30846" lon="-0.3737">
        <ele>26.57</ele>
        <time>2016-08-18T13:01:43Z</time>
      </trkpt>
      <trkpt lat="49.30721" lon="-0.37414">
        <ele>27.53</ele>
        <time>2016-08-18T13:02:04Z</time>
      </trkpt>
      <trkpt lat="49.30596" lon="-0.37458">
        <ele>26.57</ele>
        <time>2016-08-18T13:02:25Z</time>
      </trkpt>
      <trkpt lat="49.30452" lon="-0.37507">
        <ele>28.02</ele>
        <time>2016-08-18T13:02:49Z</time>
      </trkpt>
      <trkpt lat="49.30289" lon="-0.37564">
        <ele>28.98</ele>
        <time>2016-08-18T13:03:17Z</time>
      </trkpt>
      <trkpt lat="49.302" lon="-0.37596">
        <ele>29.46</ele>
        <time>2016-08-18T13:03:35Z</time>
      </trkpt>
      <trkpt lat="49.3016" lon="-0.37609">
        <ele>29.46</ele>
        <time>2016-08-18T13:03:51Z</time>
      </trkpt>
      <trkpt lat="49.30157" lon="-0.37612">
        <ele>29.46</ele>
        <time>2016-08-18T13:04:44Z</time>
      </trkpt>
      <trkpt lat="49.3013" lon="-0.37676">
        <ele>29.94</ele>
        <time>2016-08-18T13:04:58Z</time>
      </trkpt>
      <trkpt lat="49.3009" lon="-0.37772">
        <ele>31.86</ele>
        <time>2016-08-18T13:05:16Z</time>
      </trkpt>
      <trkpt lat="49.30038" lon="-0.37915">
        <ele>32.82</ele>
        <time>2016-08-18T13:05:35Z</time>
      </trkpt>
      <trkpt lat="49.2998" lon="-0.38093">
        <ele>33.3</ele>
        <time>2016-08-18T13:05:59Z</time>
      </trkpt>
      <trkpt lat="49.2998" lon="-0.38115">
        <ele>33.3</ele>
        <time>2016-08-18T13:06:07Z</time>
      </trkpt>
      <trkpt lat="49.29993" lon="-0.38123">
        <ele>33.3</ele>
        <time>2016-08-18T13:06:15Z</time>
      </trkpt>
      <trkpt lat="49.29986" lon="-0.38173">
        <ele>31</ele>
      </trkpt>
      <trkpt lat="49.30082" lon="-0.38376">
        <ele>31.6</ele>
      </trkpt>
      <trkpt lat="49.30072" lon="-0.38388">
        <ele>32</ele>
      </trkpt>
      <trkpt lat="49.30029" lon="-0.38388">
        <ele>32</ele>
      </trkpt>
      <trkpt lat="49.29911" lon="-0.38548">
        <ele>33.8</ele>
      </trkpt>
      <trkpt lat="49.29561" lon="-0.39037">
        <ele>36</ele>
      </trkpt>
      <trkpt lat="49.29418" lon="-0.39236">
        <ele>37</ele>
      </trkpt>
      <trkpt lat="49.29265" lon="-0.39399">
        <ele>35.5</ele>
      </trkpt>
      <trkpt lat="49.29235" lon="-0.39326">
        <ele>33</ele>
      </trkpt>
      <trkpt lat="49.29182" lon="-0.39252">
        <ele>31</ele>
      </trkpt>
      <trkpt lat="49.29101" lon="-0.39368">
        <ele>33</ele>
      </trkpt>
      <trkpt lat="49.29099" lon="-0.39443">
        <ele>34</ele>
      </trkpt>
      <trkpt lat="49.29063" lon="-0.39654">
        <ele>37.6</ele>
      </trkpt>
      <trkpt lat="49.29059" lon="-0.39822">
        <ele>40.2</ele>
      </trkpt>
      <trkpt lat="49.29097" lon="-0.40045">
        <ele>44.8</ele>
      </trkpt>
      <trkpt lat="49.29113" lon="-0.40164">
        <ele>47.1</ele>
      </trkpt>
      <trkpt lat="49.29107" lon="-0.40522">
        <ele>52</ele>
      </trkpt>
      <trkpt lat="49.29099" lon="-0.40831">
        <ele>55</ele>
      </trkpt>
      <trkpt lat="49.29088" lon="-0.41055">
        <ele>56.2</ele>
      </trkpt>
      <trkpt lat="49.29078" lon="-0.41149">
        <ele>57</ele>
      </trkpt>
      <trkpt lat="49.29086" lon="-0.41247">
        <ele>57.9</ele>
      </trkpt>
      <trkpt lat="49.29089" lon="-0.41308">
        <ele>57.9</ele>
      </trkpt>
      <trkpt lat="49.29095" lon="-0.41492">
        <ele>58.8</ele>
      </trkpt>
      <trkpt lat="49.29091" lon="-0.41761">
        <ele>61</ele>
      </trkpt>
      <trkpt lat="49.29098" lon="-0.41802">
        <ele>60.6</ele>
      </trkpt>
      <trkpt lat="49.29111" lon="-0.41844">
        <ele>60</ele>
      </trkpt>
      <trkpt lat="49.29073" lon="-0.41928">
        <ele>60.6</ele>
      </trkpt>
      <trkpt lat="49.29075" lon="-0.41979">
        <ele>61</ele>
      </trkpt>
      <trkpt lat="49.29075" lon="-0.42082">
        <ele>61</ele>
      </trkpt>
      <trkpt lat="49.29092" lon="-0.42423">
        <ele>60.7</ele>
      </trkpt>
      <trkpt lat="49.29073" lon="-0.42753">
        <ele>59</ele>
      </trkpt>
      <trkpt lat="49.29074" lon="-0.42866">
        <ele>58.9</ele>
      </trkpt>
      <trkpt lat="49.29085" lon="-0.43186">
        <ele>60</ele>
      </trkpt>
      <trkpt lat="49.29082" lon="-0.43235">
        <ele>60</ele>
      </trkpt>
      <trkpt lat="49.29102" lon="-0.43239">
        <ele>59.6</ele>
      </trkpt>
      <trkpt lat="49.29142" lon="-0.43293">
        <ele>57.4</ele>
      </trkpt>
      <trkpt lat="49.29121" lon="-0.43329">
        <ele>57.6</ele>
      </trkpt>
      <trkpt lat="49.29112" lon="-0.43396">
        <ele>57.3</ele>
      </trkpt>
      <trkpt lat="49.29088" lon="-0.434">
        <ele>57.9</ele>
      </trkpt>
      <trkpt lat="49.29087" lon="-0.4337">
        <ele>57.9</ele>
      </trkpt>
      <trkpt lat="49.29116" lon="-0.43371">
        <ele>57.1</ele>
      </trkpt>
      <trkpt lat="49.291" lon="-0.43499">
        <ele>59.4</ele>
      </trkpt>
      <trkpt lat="49.29091" lon="-0.4359">
        <ele>60</ele>
      </trkpt>
      <trkpt lat="49.29088" lon="-0.43639">
        <ele>61</ele>
      </trkpt>
      <trkpt lat="49.29023" lon="-0.4366">
        <ele>60</ele>
      </trkpt>
      <trkpt lat="49.29009" lon="-0.43675">
        <ele>60</ele>
      </trkpt>
      <trkpt lat="49.29007" lon="-0.43759">
        <ele>59.9</ele>
      </trkpt>
      <trkpt lat="49.29014" lon="-0.43883">
        <ele>59.9</ele>
      </trkpt>
      <trkpt lat="49.2902" lon="-0.4393">
        <ele>60</ele>
      </trkpt>
      <trkpt lat="49.29023" lon="-0.44048">
        <ele>58.4</ele>
      </trkpt>
      <trkpt lat="49.29031" lon="-0.44213">
        <ele>56.4</ele>
      </trkpt>
      <trkpt lat="49.29034" lon="-0.44255">
        <ele>55.9</ele>
      </trkpt>
      <trkpt lat="49.29028" lon="-0.44295">
        <ele>54.4</ele>
      </trkpt>
      <trkpt lat="49.28974" lon="-0.44456">
        <ele>51</ele>
      </trkpt>
      <trkpt lat="49.28936" lon="-0.44638">
        <ele>45</ele>
      </trkpt>
      <trkpt lat="49.2887" lon="-0.449">
        <ele>41.2</ele>
      </trkpt>
      <trkpt lat="49.28784" lon="-0.45138">
        <ele>34.7</ele>
      </trkpt>
      <trkpt lat="49.28761" lon="-0.45214">
        <ele>30.7</ele>
      </trkpt>
      <trkpt lat="49.28749" lon="-0.453">
        <ele>25.2</ele>
      </trkpt>
      <trkpt lat="49.28761" lon="-0.45392">
        <ele>19.2</ele>
      </trkpt>
      <trkpt lat="49.28795" lon="-0.45522">
        <ele>13.6</ele>
      </trkpt>
      <trkpt lat="49.28714" lon="-0.45524">
        <ele>15.3</ele>
      </trkpt>
      <trkpt lat="49.28497" lon="-0.45385">
        <ele>14.9</ele>
      </trkpt>
      <trkpt lat="49.28474" lon="-0.45394">
        <ele>15</ele>
      </trkpt>
      <trkpt lat="49.28431" lon="-0.45439">
        <ele>16.4</ele>
      </trkpt>
      <trkpt lat="49.28363" lon="-0.45385">
        <ele>16.8</ele>
      </trkpt>
      <trkpt lat="49.28276" lon="-0.45341">
        <ele>17.6</ele>
      </trkpt>
      <trkpt lat="49.28185" lon="-0.45374">
        <ele>17.5</ele>
      </trkpt>
      <trkpt lat="49.27998" lon="-0.45419">
        <ele>20.3</ele>
      </trkpt>
      <trkpt lat="49.2797" lon="-0.4543">
        <ele>21.8</ele>
      </trkpt>
      <trkpt lat="49.27858" lon="-0.45495">
        <ele>22.3</ele>
      </trkpt>
      <trkpt lat="49.27817" lon="-0.45518">
        <ele>21.5</ele>
      </trkpt>
      <trkpt lat="49.27778" lon="-0.45529">
        <ele>21.2</ele>
      </trkpt>
      <trkpt lat="49.27711" lon="-0.45517">
        <ele>20.4</ele>
      </trkpt>
      <trkpt lat="49.27713" lon="-0.45648">
        <ele>28.9</ele>
      </trkpt>
      <trkpt lat="49.27702" lon="-0.45735">
        <ele>32.5</ele>
      </trkpt>
      <trkpt lat="49.27704" lon="-0.45789">
        <ele>34.1</ele>
      </trkpt>
      <trkpt lat="49.27677" lon="-0.45919">
        <ele>38.7</ele>
      </trkpt>
      <trkpt lat="49.27668" lon="-0.46009">
        <ele>41.1</ele>
      </trkpt>
      <trkpt lat="49.27678" lon="-0.46183">
        <ele>46.6</ele>
      </trkpt>
      <trkpt lat="49.27696" lon="-0.46413">
        <ele>50.9</ele>
      </trkpt>
      <trkpt lat="49.27701" lon="-0.46525">
        <ele>51</ele>
      </trkpt>
      <trkpt lat="49.2771" lon="-0.46706">
        <ele>52</ele>
      </trkpt>
      <trkpt lat="49.27727" lon="-0.46825">
        <ele>52</ele>
      </trkpt>
      <trkpt lat="49.27779" lon="-0.471">
        <ele>53</ele>
      </trkpt>
      <trkpt lat="49.2778" lon="-0.47183">
        <ele>53</ele>
      </trkpt>
      <trkpt lat="49.27743" lon="-0.47351">
        <ele>54</ele>
      </trkpt>
      <trkpt lat="49.27732" lon="-0.4742">
        <ele>54</ele>
      </trkpt>
      <trkpt lat="49.27734" lon="-0.47515">
        <ele>54</ele>
      </trkpt>
      <trkpt lat="49.27729" lon="-0.47608">
        <ele>54</ele>
      </trkpt>
      <trkpt lat="49.27721" lon="-0.47662">
        <ele>54.1</ele>
      </trkpt>
      <trkpt lat="49.27718" lon="-0.47688">
        <ele>54.2</ele>
      </trkpt>
      <trkpt lat="49.27699" lon="-0.47818">
        <ele>55</ele>
      </trkpt>
      <trkpt lat="49.27683" lon="-0.47896">
        <ele>56</ele>
      </trkpt>
      <trkpt lat="49.27663" lon="-0.4798">
        <ele>56</ele>
      </trkpt>
      <trkpt lat="49.27641" lon="-0.48047">
        <ele>56</ele>
      </trkpt>
      <trkpt lat="49.27627" lon="-0.48084">
        <ele>57</ele>
      </trkpt>
      <trkpt lat="49.27602" lon="-0.48128">
        <ele>56.5</ele>
      </trkpt>
      <trkpt lat="49.27572" lon="-0.48176">
        <ele>56.6</ele>
      </trkpt>
      <trkpt lat="49.27552" lon="-0.48213">
        <ele>56</ele>
      </trkpt>
      <trkpt lat="49.27542" lon="-0.4825">
        <ele>56</ele>
      </trkpt>
      <trkpt lat="49.27512" lon="-0.48422">
        <ele>52.9</ele>
      </trkpt>
      <trkpt lat="49.27507" lon="-0.4845">
        <ele>52.2</ele>
      </trkpt>
      <trkpt lat="49.275" lon="-0.48493">
        <ele>52</ele>
      </trkpt>
      <trkpt lat="49.27492" lon="-0.48582">
        <ele>51</ele>
      </trkpt>
      <trkpt lat="49.27494" lon="-0.48635">
        <ele>50</ele>
      </trkpt>
      <trkpt lat="49.27522" lon="-0.48952">
        <ele>47</ele>
      </trkpt>
      <trkpt lat="49.27533" lon="-0.49063">
        <ele>46.1</ele>
      </trkpt>
      <trkpt lat="49.27562" lon="-0.49314">
        <ele>44.2</ele>
      </trkpt>
      <trkpt lat="49.27709" lon="-0.49272">
        <ele>47.5</ele>
      </trkpt>
      <trkpt lat="49.27799" lon="-0.49253">
        <ele>49</ele>
      </trkpt>
      <trkpt lat="49.28013" lon="-0.49173">
        <ele>48</ele>
      </trkpt>
      <trkpt lat="49.28049" lon="-0.49159">
        <ele>47.2</ele>
      </trkpt>
      <trkpt lat="49.28199" lon="-0.49067">
        <ele>43.1</ele>
      </trkpt>
      <trkpt lat="49.28275" lon="-0.49035">
        <ele>42.9</ele>
      </trkpt>
      <trkpt lat="49.28391" lon="-0.48995">
        <ele>40.1</ele>
      </trkpt>
      <trkpt lat="49.28519" lon="-0.4893">
        <ele>35.8</ele>
      </trkpt>
      <trkpt lat="49.28583" lon="-0.48896">
        <ele>34.5</ele>
      </trkpt>
      <trkpt lat="49.28617" lon="-0.48886">
        <ele>34.3</ele>
      </trkpt>
      <trkpt lat="49.28677" lon="-0.48894">
        <ele>33.2</ele>
      </trkpt>
      <trkpt lat="49.28718" lon="-0.48881">
        <ele>32.9</ele>
      </trkpt>
      <trkpt lat="49.28762" lon="-0.48847">
        <ele>33.1</ele>
      </trkpt>
      <trkpt lat="49.28791" lon="-0.4881">
        <ele>32</ele>
      </trkpt>
      <trkpt lat="49.28813" lon="-0.48773">
        <ele>30.9</ele>
      </trkpt>
      <trkpt lat="49.2884" lon="-0.48745">
        <ele>31.1</ele>
      </trkpt>
      <trkpt lat="49.28927" lon="-0.48706">
        <ele>30.8</ele>
      </trkpt>
      <trkpt lat="49.28989" lon="-0.48644">
        <ele>30</ele>
      </trkpt>
      <trkpt lat="49.29024" lon="-0.48606">
        <ele>28.1</ele>
      </trkpt>
      <trkpt lat="49.29059" lon="-0.48577">
        <ele>27.9</ele>
      </trkpt>
      <trkpt lat="49.29136" lon="-0.4856">
        <ele>25</ele>
      </trkpt>
      <trkpt lat="49.29184" lon="-0.48529">
        <ele>25</ele>
      </trkpt>
      <trkpt lat="49.29218" lon="-0.48488">
        <ele>24.5</ele>
      </trkpt>
      <trkpt lat="49.29247" lon="-0.48441">
        <ele>24.1</ele>
      </trkpt>
      <trkpt lat="49.29274" lon="-0.48394">
        <ele>23.1</ele>
      </trkpt>
      <trkpt lat="49.29296" lon="-0.48384">
        <ele>21.7</ele>
      </trkpt>
      <trkpt lat="49.29316" lon="-0.48383">
        <ele>20.3</ele>
      </trkpt>
      <trkpt lat="49.29355" lon="-0.48403">
        <ele>17.8</ele>
      </trkpt>
      <trkpt lat="49.29406" lon="-0.48218">
        <ele>18.8</ele>
      </trkpt>
      <trkpt lat="49.29484" lon="-0.47986">
        <ele>18.1</ele>
      </trkpt>
      <trkpt lat="49.29528" lon="-0.47857">
        <ele>18</ele>
      </trkpt>
      <trkpt lat="49.2954" lon="-0.47821">
        <ele>18</ele>
      </trkpt>
      <trkpt lat="49.29589" lon="-0.47733">
        <ele>19.3</ele>
      </trkpt>
      <trkpt lat="49.29624" lon="-0.47681">
        <ele>20.5</ele>
      </trkpt>
      <trkpt lat="49.29658" lon="-0.47637">
        <ele>22.1</ele>
      </trkpt>
      <trkpt lat="49.29682" lon="-0.47613">
        <ele>23.3</ele>
      </trkpt>
      <trkpt lat="49.29732" lon="-0.47548">
        <ele>28</ele>
      </trkpt>
      <trkpt lat="49.29749" lon="-0.47508">
        <ele>30.5</ele>
      </trkpt>
      <trkpt lat="49.29766" lon="-0.47443">
        <ele>33.5</ele>
      </trkpt>
      <trkpt lat="49.29781" lon="-0.47407">
        <ele>33.9</ele>
      </trkpt>
      <trkpt lat="49.29788" lon="-0.47389">
        <ele>33.6</ele>
      </trkpt>
      <trkpt lat="49.29874" lon="-0.47224">
        <ele>32.5</ele>
      </trkpt>
      <trkpt lat="49.29913" lon="-0.47096">
        <ele>29.3</ele>
      </trkpt>
      <trkpt lat="49.29957" lon="-0.47036">
        <ele>26.3</ele>
      </trkpt>
      <trkpt lat="49.29994" lon="-0.47008">
        <ele>23.5</ele>
      </trkpt>
      <trkpt lat="49.30052" lon="-0.46987">
        <ele>16.1</ele>
      </trkpt>
      <trkpt lat="49.30109" lon="-0.46944">
        <ele>12.2</ele>
      </trkpt>
      <trkpt lat="49.30124" lon="-0.46929">
        <ele>11.6</ele>
      </trkpt>
      <trkpt lat="49.30137" lon="-0.46884">
        <ele>10.8</ele>
      </trkpt>
      <trkpt lat="49.30146" lon="-0.46824">
        <ele>10</ele>
      </trkpt>
      <trkpt lat="49.30139" lon="-0.46724">
        <ele>10</ele>
      </trkpt>
      <trkpt lat="49.30128" lon="-0.46638">
        <ele>10</ele>
      </trkpt>
      <trkpt lat="49.3013" lon="-0.46617">
        <ele>10</ele>
      </trkpt>
      <trkpt lat="49.30175" lon="-0.46619">
        <ele>9.2</ele>
      </trkpt>
      <trkpt lat="49.30191" lon="-0.46618">
        <ele>9</ele>
      </trkpt>
      <trkpt lat="49.30203" lon="-0.46618">
        <ele>9</ele>
      </trkpt>
      <trkpt lat="49.30224" lon="-0.4661">
        <ele>9.1</ele>
      </trkpt>
      <trkpt lat="49.30236" lon="-0.46592">
        <ele>9.1</ele>
      </trkpt>
      <trkpt lat="49.30258" lon="-0.46537">
        <ele>7.2</ele>
      </trkpt>
      <trkpt lat="49.3029" lon="-0.46557">
        <ele>6.7</ele>
      </trkpt>
      <trkpt lat="49.3031" lon="-0.46562">
        <ele>6.2</ele>
      </trkpt>
      <trkpt lat="49.30346" lon="-0.46553">
        <ele>5.6</ele>
      </trkpt>
      <trkpt lat="49.30389" lon="-0.4656">
        <ele>5.1</ele>
      </trkpt>
      <trkpt lat="49.30399" lon="-0.46555">
        <ele>5</ele>
      </trkpt>
      <trkpt lat="49.30417" lon="-0.46506">
        <ele>5</ele>
      </trkpt>
      <trkpt lat="49.30452" lon="-0.46501">
        <ele>5</ele>
      </trkpt>
      <trkpt lat="49.3047" lon="-0.46485">
        <ele>5</ele>
      </trkpt>
      <trkpt lat="49.30583" lon="-0.46502">
        <ele>6.9</ele>
      </trkpt>
      <trkpt lat="49.30658" lon="-0.46497">
        <ele>10.6</ele>
      </trkpt>
      <trkpt lat="49.30685" lon="-0.46479">
        <ele>13.9</ele>
      </trkpt>
      <trkpt lat="49.30727" lon="-0.46427">
        <ele>18.7</ele>
      </trkpt>
      <trkpt lat="49.30776" lon="-0.46346">
        <ele>17.1</ele>
      </trkpt>
      <trkpt lat="49.30793" lon="-0.46322">
        <ele>16.1</ele>
      </trkpt>
      <trkpt lat="49.30874" lon="-0.46288">
        <ele>19.9</ele>
      </trkpt>
      <trkpt lat="49.30966" lon="-0.46255">
        <ele>23.6</ele>
      </trkpt>
      <trkpt lat="49.31104" lon="-0.46228">
        <ele>26.7</ele>
      </trkpt>
      <trkpt lat="49.31314" lon="-0.46208">
        <ele>28.5</ele>
      </trkpt>
      <trkpt lat="49.31347" lon="-0.46199">
        <ele>28.9</ele>
      </trkpt>
      <trkpt lat="49.31421" lon="-0.46149">
        <ele>28.9</ele>
      </trkpt>
      <trkpt lat="49.31457" lon="-0.46141">
        <ele>28.9</ele>
      </trkpt>
      <trkpt lat="49.31508" lon="-0.4614">
        <ele>30.3</ele>
      </trkpt>
      <trkpt lat="49.31526" lon="-0.46134">
        <ele>30.9</ele>
      </trkpt>
      <trkpt lat="49.31562" lon="-0.46101">
        <ele>32</ele>
      </trkpt>
      <trkpt lat="49.31622" lon="-0.46015">
        <ele>32.5</ele>
      </trkpt>
      <trkpt lat="49.31722" lon="-0.45827">
        <ele>34.7</ele>
      </trkpt>
      <trkpt lat="49.31798" lon="-0.45727">
        <ele>33.9</ele>
      </trkpt>
      <trkpt lat="49.31815" lon="-0.45716">
        <ele>33.7</ele>
      </trkpt>
      <trkpt lat="49.32134" lon="-0.45645">
        <ele>30.2</ele>
      </trkpt>
      <trkpt lat="49.32167" lon="-0.45635">
        <ele>29.8</ele>
      </trkpt>
      <trkpt lat="49.32216" lon="-0.45626">
        <ele>28.6</ele>
      </trkpt>
      <trkpt lat="49.32227" lon="-0.45588">
        <ele>28.1</ele>
      </trkpt>
      <trkpt lat="49.32209" lon="-0.45566">
        <ele>28.8</ele>
      </trkpt>
      <trkpt lat="49.32209" lon="-0.45531">
        <ele>28.1</ele>
      </trkpt>
      <trkpt lat="49.32223" lon="-0.45521">
        <ele>28</ele>
      </trkpt>
      <trkpt lat="49.32241" lon="-0.4553">
        <ele>27.4</ele>
      </trkpt>
      <trkpt lat="49.32251" lon="-0.45579">
        <ele>28</ele>
      </trkpt>
      <trkpt lat="49.32282" lon="-0.45612">
        <ele>27</ele>
      </trkpt>
      <trkpt lat="49.32298" lon="-0.4561">
        <ele>27</ele>
      </trkpt>
      <trkpt lat="49.32327" lon="-0.45607">
        <ele>26.2</ele>
      </trkpt>
      <trkpt lat="49.32538" lon="-0.45568">
        <ele>19.9</ele>
      </trkpt>
      <trkpt lat="49.32608" lon="-0.45617">
        <ele>18.2</ele>
      </trkpt>
      <trkpt lat="49.32672" lon="-0.45652">
        <ele>15.9</ele>
      </trkpt>
      <trkpt lat="49.32697" lon="-0.4566">
        <ele>15.2</ele>
      </trkpt>
      <trkpt lat="49.32806" lon="-0.45658">
        <ele>12</ele>
      </trkpt>
      <trkpt lat="49.32802" lon="-0.45606">
        <ele>13.3</ele>
      </trkpt>
      <trkpt lat="49.32806" lon="-0.45562">
        <ele>14</ele>
      </trkpt>
      <trkpt lat="49.32763" lon="-0.4556">
        <ele>15.5</ele>
      </trkpt>
      <trkpt lat="49.32572" lon="-0.45476">
        <ele>20</ele>
      </trkpt>
      <trkpt lat="49.32555" lon="-0.45579">
        <ele>19</ele>
      </trkpt>
      <trkpt lat="49.32661" lon="-0.45646">
        <ele>16.5</ele>
      </trkpt>
      <trkpt lat="49.32692" lon="-0.45661">
        <ele>15.3</ele>
      </trkpt>
      <trkpt lat="49.32722" lon="-0.4566">
        <ele>15</ele>
      </trkpt>
      <trkpt lat="49.32739" lon="-0.45703">
        <ele>16.3</ele>
      </trkpt>
      <trkpt lat="49.32743" lon="-0.45662">
        <ele>14.3</ele>
      </trkpt>
      <trkpt lat="49.32843" lon="-0.45656">
        <ele>10.9</ele>
      </trkpt>
      <trkpt lat="49.3291" lon="-0.45651">
        <ele>9.7</ele>
      </trkpt>
      <trkpt lat="49.32948" lon="-0.45656">
        <ele>8.4</ele>
      </trkpt>
      <trkpt lat="49.32965" lon="-0.45693">
        <ele>8.9</ele>
      </trkpt>
      <trkpt lat="49.32983" lon="-0.45682">
        <ele>7.9</ele>
      </trkpt>
      <trkpt lat="49.32988" lon="-0.45644">
        <ele>7</ele>
      </trkpt>
      <trkpt lat="49.33011" lon="-0.4552">
        <ele>5.4</ele>
      </trkpt>
      <trkpt lat="49.33002" lon="-0.45481">
        <ele>5</ele>
      </trkpt>
      <trkpt lat="49.32998" lon="-0.45412">
        <ele>6.1</ele>
      </trkpt>
      <trkpt lat="49.32994" lon="-0.45199">
        <ele>8.4</ele>
      </trkpt>
      <trkpt lat="49.32999" lon="-0.45118">
        <ele>8.1</ele>
      </trkpt>
      <trkpt lat="49.33005" lon="-0.45083">
        <ele>8.8</ele>
      </trkpt>
      <trkpt lat="49.33033" lon="-0.44992">
        <ele>8.1</ele>
      </trkpt>
      <trkpt lat="49.33036" lon="-0.44938">
        <ele>7.9</ele>
      </trkpt>
      <trkpt lat="49.33024" lon="-0.44748">
        <ele>9.1</ele>
      </trkpt>
      <trkpt lat="49.33013" lon="-0.44588">
        <ele>8.5</ele>
      </trkpt>
      <trkpt lat="49.32985" lon="-0.44218">
        <ele>9.9</ele>
      </trkpt>
      <trkpt lat="49.3294" lon="-0.43513">
        <ele>10</ele>
      </trkpt>
      <trkpt lat="49.32948" lon="-0.43397">
        <ele>9.9</ele>
      </trkpt>
      <trkpt lat="49.32929" lon="-0.43313">
        <ele>9.1</ele>
      </trkpt>
      <trkpt lat="49.32913" lon="-0.43069">
        <ele>5.9</ele>
      </trkpt>
      <trkpt lat="49.32904" lon="-0.42987">
        <ele>5</ele>
      </trkpt>
      <trkpt lat="49.32908" lon="-0.42783">
        <ele>4.7</ele>
      </trkpt>
      <trkpt lat="49.32891" lon="-0.42657">
        <ele>5</ele>
      </trkpt>
      <trkpt lat="49.32877" lon="-0.42628">
        <ele>5</ele>
      </trkpt>
      <trkpt lat="49.32897" lon="-0.425">
        <ele>6</ele>
      </trkpt>
      <trkpt lat="49.32937" lon="-0.42491">
        <ele>6.1</ele>
      </trkpt>
      <trkpt lat="49.32989" lon="-0.4247">
        <ele>6</ele>
      </trkpt>
      <trkpt lat="49.33008" lon="-0.42466">
        <ele>6</ele>
      </trkpt>
      <trkpt lat="49.33095" lon="-0.42428">
        <ele>6</ele>
      </trkpt>
      <trkpt lat="49.33124" lon="-0.4241">
        <ele>6.1</ele>
      </trkpt>
      <trkpt lat="49.33137" lon="-0.4239">
        <ele>6.1</ele>
      </trkpt>
      <trkpt lat="49.33141" lon="-0.42379">
        <ele>6</ele>
      </trkpt>
      <trkpt lat="49.33166" lon="-0.42208">
        <ele>6</ele>
      </trkpt>
      <trkpt lat="49.33158" lon="-0.41798">
        <ele>8</ele>
      </trkpt>
      <trkpt lat="49.33159" lon="-0.41781">
        <ele>8</ele>
      </trkpt>
      <trkpt lat="49.33155" lon="-0.41777">
        <ele>8</ele>
      </trkpt>
      <trkpt lat="49.33156" lon="-0.4177">
        <ele>8</ele>
      </trkpt>
      <trkpt lat="49.3316" lon="-0.41766">
        <ele>8</ele>
      </trkpt>
      <trkpt lat="49.33155" lon="-0.4153">
        <ele>8.4</ele>
      </trkpt>
      <trkpt lat="49.33153" lon="-0.41502">
        <ele>8</ele>
      </trkpt>
      <trkpt lat="49.33153" lon="-0.41451">
        <ele>8.5</ele>
      </trkpt>
      <trkpt lat="49.33147" lon="-0.41273">
        <ele>8.7</ele>
      </trkpt>
      <trkpt lat="49.33156" lon="-0.41175">
        <ele>8.9</ele>
      </trkpt>
      <trkpt lat="49.33169" lon="-0.4112">
        <ele>9</ele>
      </trkpt>
      <trkpt lat="49.33189" lon="-0.41068">
        <ele>9</ele>
      </trkpt>
      <trkpt lat="49.33213" lon="-0.40969">
        <ele>9</ele>
      </trkpt>
      <trkpt lat="49.33222" lon="-0.409">
        <ele>9</ele>
      </trkpt>
      <trkpt lat="49.33225" lon="-0.40807">
        <ele>9</ele>
      </trkpt>
      <trkpt lat="49.3322" lon="-0.40687">
        <ele>9.9</ele>
      </trkpt>
      <trkpt lat="49.33208" lon="-0.40622">
        <ele>9</ele>
      </trkpt>
      <trkpt lat="49.33192" lon="-0.40564">
        <ele>8.9</ele>
      </trkpt>
      <trkpt lat="49.3319" lon="-0.40531">
        <ele>9</ele>
      </trkpt>
      <trkpt lat="49.33191" lon="-0.40497">
        <ele>8</ele>
      </trkpt>
      <trkpt lat="49.3312" lon="-0.39999">
        <ele>9.7</ele>
      </trkpt>
      <trkpt lat="49.33116" lon="-0.3997">
        <ele>9.8</ele>
      </trkpt>
      <trkpt lat="49.33117" lon="-0.39943">
        <ele>10</ele>
      </trkpt>
      <trkpt lat="49.33108" lon="-0.39768">
        <ele>9.1</ele>
      </trkpt>
      <trkpt lat="49.33093" lon="-0.39656">
        <ele>8.4</ele>
      </trkpt>
      <trkpt lat="49.33077" lon="-0.39594">
        <ele>6.5</ele>
      </trkpt>
      <trkpt lat="49.33059" lon="-0.39532">
        <ele>6</ele>
      </trkpt>
      <trkpt lat="49.33014" lon="-0.39398">
        <ele>6</ele>
      </trkpt>
      <trkpt lat="49.33013" lon="-0.39391">
        <ele>6</ele>
      </trkpt>
      <trkpt lat="49.32973" lon="-0.39288">
        <ele>8</ele>
      </trkpt>
      <trkpt lat="49.32948" lon="-0.39224">
        <ele>9</ele>
      </trkpt>
      <trkpt lat="49.32922" lon="-0.39156">
        <ele>9</ele>
      </trkpt>
      <trkpt lat="49.32901" lon="-0.39095">
        <ele>9</ele>
      </trkpt>
      <trkpt lat="49.3288" lon="-0.39046">
        <ele>9</ele>
      </trkpt>
      <trkpt lat="49.32861" lon="-0.38996">
        <ele>9</ele>
      </trkpt>
      <trkpt lat="49.32839" lon="-0.38947">
        <ele>9.1</ele>
      </trkpt>
      <trkpt lat="49.32811" lon="-0.38898">
        <ele>9</ele>
      </trkpt>
      <trkpt lat="49.32716" lon="-0.38728">
        <ele>9</ele>
      </trkpt>
      <trkpt lat="49.32712" lon="-0.38717">
        <ele>9</ele>
      </trkpt>
      <trkpt lat="49.32705" lon="-0.38721">
        <ele>9</ele>
      </trkpt>
      <trkpt lat="49.32694" lon="-0.38714">
        <ele>9</ele>
      </trkpt>
      <trkpt lat="49.32693" lon="-0.38689">
        <ele>9</ele>
      </trkpt>
      <trkpt lat="49.32686" lon="-0.38669">
        <ele>9</ele>
      </trkpt>
      <trkpt lat="49.32671" lon="-0.38677">
        <ele>9</ele>
      </trkpt>
      <trkpt lat="49.32672" lon="-0.38689">
        <ele>9</ele>
      </trkpt>
      <trkpt lat="49.32676" lon="-0.38678">
        <ele>9</ele>
      </trkpt>
      <trkpt lat="49.32688" lon="-0.38673">
        <ele>9</ele>
      </trkpt>
      <trkpt lat="49.32695" lon="-0.38691">
        <ele>9</ele>
      </trkpt>
      <trkpt lat="49.32702" lon="-0.3869">
        <ele>9</ele>
      </trkpt>
      <trkpt lat="49.32704" lon="-0.38638">
        <ele>8.6</ele>
      </trkpt>
      <trkpt lat="49.32707" lon="-0.38558">
        <ele>7.5</ele>
      </trkpt>
      <trkpt lat="49.32702" lon="-0.38468">
        <ele>6.9</ele>
      </trkpt>
      <trkpt lat="49.32698" lon="-0.3845">
        <ele>7.7</ele>
      </trkpt>
      <trkpt lat="49.32694" lon="-0.38412">
        <ele>8.2</ele>
      </trkpt>
      <trkpt lat="49.32671" lon="-0.38283">
        <ele>9</ele>
      </trkpt>
      <trkpt lat="49.32636" lon="-0.3809">
        <ele>10</ele>
      </trkpt>
      <trkpt lat="49.32673" lon="-0.38064">
        <ele>3.5</ele>
        <time>2016-08-18T15:38:34Z</time>
      </trkpt>
    </trkseg>
  </trk>
</gpx>